createdAt,value
2019-05-29T00:00:15.345Z,9.03
2019-05-29T00:02:43.953Z,8.98
2019-05-29T00:05:12.854Z,12.55
2019-05-29T00:07:41.594Z,7.00
2019-05-29T00:10:10.895Z,13.98
2019-05-29T00:12:39.701Z,8.05
2019-05-29T00:15:08.445Z,8.38
2019-05-29T00:17:37.253Z,9.28
2019-05-29T00:20:08.315Z,7.85
2019-05-29T00:22:37.001Z,6.80
2019-05-29T00:25:10.611Z,6.65
2019-05-29T00:27:39.226Z,5.80
2019-05-29T00:30:08.856Z,11.95
2019-05-29T00:32:38.279Z,9.18
2019-05-29T00:35:08.671Z,6.95
2019-05-29T00:37:37.286Z,18.50
2019-05-29T00:40:08.955Z,10.35
2019-05-29T00:42:37.826Z,7.83
2019-05-29T00:45:09.330Z,13.10
2019-05-29T00:47:38.234Z,10.35
2019-05-29T00:50:09.821Z,8.03
2019-05-29T00:52:38.885Z,7.05
2019-05-29T00:55:08.727Z,8.33
2019-05-29T00:57:37.758Z,7.08
2019-05-29T01:00:09.040Z,9.48
2019-05-29T01:02:37.841Z,8.00
2019-05-29T01:05:07.370Z,7.08
2019-05-29T01:07:35.919Z,11.25
2019-05-29T01:10:10.598Z,8.00
2019-05-29T01:12:39.538Z,7.08
2019-05-29T01:15:08.581Z,10.38
2019-05-29T01:17:37.047Z,6.10
2019-05-29T01:20:07.520Z,6.30
2019-05-29T01:22:36.284Z,7.00
2019-05-29T01:25:06.382Z,9.13
2019-05-29T01:27:35.044Z,10.20
2019-05-29T01:30:04.761Z,5.62
2019-05-29T01:32:33.361Z,7.83
2019-05-29T01:35:01.895Z,8.40
2019-05-29T01:37:30.360Z,7.50
2019-05-29T01:39:58.899Z,9.70
2019-05-29T01:42:27.772Z,7.50
2019-05-29T01:45:07.187Z,7.42
2019-05-29T01:47:28.040Z,5.72
2019-05-29T01:49:57.169Z,8.25
2019-05-29T01:52:25.762Z,7.15
2019-05-29T01:54:54.250Z,7.67
2019-05-29T01:57:23.784Z,7.22
2019-05-29T01:59:52.536Z,5.47
2019-05-29T02:02:21.962Z,8.00
2019-05-29T02:04:50.768Z,6.58
2019-05-29T02:07:19.979Z,6.25
2019-05-29T02:09:48.696Z,8.50
2019-05-29T02:12:19.316Z,8.03
2019-05-29T02:14:47.706Z,5.78
2019-05-29T02:17:17.670Z,8.95
2019-05-29T02:19:46.320Z,7.72
2019-05-29T02:22:14.932Z,6.33
2019-05-29T02:24:43.586Z,7.10
2019-05-29T02:27:14.207Z,8.28
2019-05-29T02:29:42.702Z,6.35
2019-05-29T02:32:11.378Z,7.58
2019-05-29T02:34:39.989Z,11.00
2019-05-29T02:37:08.520Z,6.85
2019-05-29T02:39:37.085Z,6.35
2019-05-29T02:42:05.855Z,8.73
2019-05-29T02:44:34.458Z,6.83
2019-05-29T02:47:03.085Z,8.60
2019-05-29T02:49:31.557Z,6.92
2019-05-29T02:52:00.384Z,6.42
2019-05-29T02:54:30.047Z,9.15
2019-05-29T02:56:59.196Z,5.75
2019-05-29T02:59:29.645Z,6.53
2019-05-29T03:01:58.068Z,7.22
2019-05-29T03:04:28.063Z,12.75
2019-05-29T03:06:56.794Z,5.20
2019-05-29T03:09:26.581Z,9.65
2019-05-29T03:12:00.045Z,10.13
2019-05-29T03:14:27.220Z,7.62
2019-05-29T03:16:56.177Z,5.15
2019-05-29T03:19:25.973Z,6.22
2019-05-29T03:21:57.409Z,7.50
2019-05-29T03:24:26.660Z,7.00
2019-05-29T03:26:58.727Z,6.90
2019-05-29T03:29:28.161Z,8.65
2019-05-29T03:31:57.951Z,9.55
2019-05-29T03:34:30.420Z,6.25
2019-05-29T03:36:56.841Z,8.83
2019-05-29T03:39:26.354Z,7.05
2019-05-29T03:41:55.247Z,6.97
2019-05-29T03:44:23.937Z,6.22
2019-05-29T03:46:52.468Z,6.17
2019-05-29T03:49:21.092Z,8.25
2019-05-29T03:51:49.552Z,7.67
2019-05-29T03:54:18.105Z,6.00
2019-05-29T03:56:46.685Z,5.95
2019-05-29T03:59:15.313Z,8.53
2019-05-29T04:01:43.857Z,8.70
2019-05-29T04:04:12.555Z,5.97
2019-05-29T04:06:41.206Z,6.22
2019-05-29T04:09:09.695Z,5.67
2019-05-29T04:11:39.240Z,9.33
2019-05-29T04:14:07.854Z,7.20
2019-05-29T04:16:57.796Z,9.03
2019-05-29T04:19:07.276Z,6.37
2019-05-29T04:21:38.622Z,10.43
2019-05-29T04:24:07.564Z,6.12
2019-05-29T04:26:40.831Z,6.30
2019-05-29T04:29:10.463Z,8.70
2019-05-29T04:31:39.442Z,8.08
2019-05-29T04:34:08.004Z,10.25
2019-05-29T04:36:36.947Z,11.20
2019-05-29T04:39:07.525Z,8.58
2019-05-29T04:41:37.038Z,7.90
2019-05-29T04:44:06.146Z,7.85
2019-05-29T04:46:36.420Z,5.80
2019-05-29T04:49:05.001Z,6.95
2019-05-29T04:51:35.431Z,8.38
2019-05-29T04:54:04.029Z,8.28
2019-05-29T04:56:32.829Z,12.18
2019-05-29T04:59:01.628Z,9.10
2019-05-29T05:01:30.878Z,7.35
2019-05-29T05:03:59.650Z,8.35
2019-05-29T05:06:29.129Z,8.08
2019-05-29T05:08:57.939Z,7.83
2019-05-29T05:11:26.541Z,7.33
2019-05-29T05:13:55.636Z,11.15
2019-05-29T05:16:24.113Z,10.20
2019-05-29T05:18:52.720Z,7.53
2019-05-29T05:21:21.365Z,8.53
2019-05-29T05:23:49.896Z,6.80
2019-05-29T05:26:18.549Z,7.65
2019-05-29T05:28:47.393Z,7.28
2019-05-29T05:31:16.133Z,6.45
2019-05-29T05:33:44.666Z,7.30
2019-05-29T05:36:13.255Z,7.80
2019-05-29T05:38:41.794Z,7.78
2019-05-29T05:41:10.625Z,8.73
2019-05-29T05:43:39.186Z,8.28
2019-05-29T05:46:07.855Z,7.42
2019-05-29T05:48:37.156Z,7.92
2019-05-29T05:51:05.852Z,8.58
2019-05-29T05:53:35.443Z,10.98
2019-05-29T05:56:04.072Z,8.55
2019-05-29T05:58:33.755Z,14.83
2019-05-29T06:01:02.302Z,17.10
2019-05-29T06:03:31.799Z,30.02
2019-05-29T06:06:00.764Z,16.12
2019-05-29T06:08:29.302Z,18.60
2019-05-29T06:10:57.918Z,19.30
2019-05-29T06:13:26.516Z,35.48
2019-05-29T06:15:55.182Z,13.53
2019-05-29T06:18:23.856Z,9.23
2019-05-29T06:20:52.423Z,8.33
2019-05-29T06:23:20.987Z,8.33
2019-05-29T06:25:49.574Z,8.45
2019-05-29T06:28:18.410Z,10.25
2019-05-29T06:30:47.026Z,15.40
2019-05-29T06:33:15.612Z,6.10
2019-05-29T06:35:44.140Z,8.18
2019-05-29T06:38:12.761Z,8.38
2019-05-29T06:40:44.042Z,9.20
2019-05-29T06:43:23.974Z,8.95
2019-05-29T06:45:53.621Z,9.35
2019-05-29T06:48:42.439Z,9.80
2019-05-29T06:50:58.179Z,9.45
2019-05-29T06:53:26.971Z,7.42
2019-05-29T06:55:57.709Z,7.17
2019-05-29T06:58:26.269Z,7.65
2019-05-29T07:00:54.877Z,9.18
2019-05-29T07:03:23.529Z,8.55
2019-05-29T07:05:52.926Z,9.23
2019-05-29T07:08:37.563Z,8.45
2019-05-29T07:10:53.527Z,10.00
2019-05-29T07:13:22.262Z,13.18
2019-05-29T07:15:50.902Z,9.23
2019-05-29T07:18:19.543Z,8.00
2019-05-29T07:20:48.090Z,12.37
2019-05-29T07:23:16.781Z,9.33
2019-05-29T07:25:45.779Z,9.20
2019-05-29T07:28:14.948Z,11.43
2019-05-29T07:30:49.708Z,9.63
2019-05-29T07:33:15.564Z,11.30
2019-05-29T07:35:45.587Z,12.15
2019-05-29T07:38:14.244Z,9.98
2019-05-29T07:40:45.100Z,14.55
2019-05-29T07:43:15.373Z,23.90
2019-05-29T07:45:44.136Z,15.78
2019-05-29T07:48:13.078Z,12.15
2019-05-29T07:50:42.225Z,15.75
2019-05-29T07:53:11.036Z,13.22
2019-05-29T07:55:40.411Z,10.40
2019-05-29T07:58:09.343Z,10.10
2019-05-29T08:01:02.606Z,9.35
2019-05-29T08:03:08.358Z,7.60
2019-05-29T08:05:36.901Z,8.95
2019-05-29T08:08:05.582Z,6.20
2019-05-29T08:10:34.265Z,5.75
2019-05-29T08:13:02.897Z,5.72
2019-05-29T08:15:31.526Z,6.00
2019-05-29T08:18:00.143Z,6.00
2019-05-29T08:20:28.819Z,6.30
2019-05-29T08:22:57.557Z,5.28
2019-05-29T08:25:26.190Z,4.70
2019-05-29T08:27:54.748Z,6.30
2019-05-29T08:30:23.595Z,5.83
2019-05-29T08:32:52.148Z,6.40
2019-05-29T08:35:20.836Z,5.33
2019-05-29T08:37:49.360Z,5.70
2019-05-29T08:40:17.966Z,6.42
2019-05-29T08:42:47.401Z,4.80
2019-05-29T08:45:16.494Z,4.53
2019-05-29T08:47:45.591Z,5.67
2019-05-29T08:50:18.546Z,5.05
2019-05-29T08:52:46.027Z,3.25
2019-05-29T08:55:15.118Z,5.62
2019-05-29T08:57:44.328Z,5.95
2019-05-29T09:00:14.077Z,5.90
2019-05-29T09:02:44.799Z,4.85
2019-05-29T09:05:13.661Z,4.50
2019-05-29T09:07:43.329Z,5.42
2019-05-29T09:10:13.138Z,4.75
2019-05-29T09:12:45.931Z,4.05
2019-05-29T09:15:12.614Z,4.58
2019-05-29T09:17:41.124Z,3.90
2019-05-29T09:20:27.254Z,4.15
2019-05-29T09:22:41.562Z,3.85
2019-05-29T09:25:10.496Z,8.60
2019-05-29T09:27:39.040Z,5.75
2019-05-29T09:30:08.177Z,5.22
2019-05-29T09:32:49.640Z,4.42
2019-05-29T09:35:07.398Z,5.22
2019-05-29T09:37:38.513Z,4.67
2019-05-29T09:40:09.979Z,4.72
2019-05-29T09:42:38.587Z,4.85
2019-05-29T09:45:07.519Z,5.12
2019-05-29T09:47:36.091Z,7.15
2019-05-29T09:50:07.100Z,5.90
2019-05-29T09:52:36.029Z,6.60
2019-05-29T09:55:06.672Z,4.65
2019-05-29T09:57:35.298Z,5.97
2019-05-29T10:00:05.649Z,7.53
2019-05-29T10:02:34.261Z,6.05
2019-05-29T10:05:04.138Z,6.60
2019-05-29T10:07:33.079Z,8.15
2019-05-29T10:10:03.675Z,7.75
2019-05-29T10:12:32.011Z,5.72
2019-05-29T10:15:00.957Z,6.08
2019-05-29T10:17:30.880Z,6.80
2019-05-29T10:20:00.678Z,7.50
2019-05-29T10:22:29.420Z,6.97
2019-05-29T10:24:58.733Z,8.05
2019-05-29T10:27:28.299Z,6.35
2019-05-29T10:29:56.910Z,6.35
2019-05-29T10:32:25.451Z,6.20
2019-05-29T10:34:54.063Z,5.92
2019-05-29T10:37:22.596Z,7.35
2019-05-29T10:39:52.991Z,6.30
2019-05-29T10:42:21.720Z,7.00
2019-05-29T10:44:51.311Z,6.03
2019-05-29T10:47:20.379Z,7.85
2019-05-29T10:49:49.756Z,7.75
2019-05-29T10:52:18.519Z,8.40
2019-05-29T10:54:48.112Z,7.47
2019-05-29T10:57:16.906Z,9.40
2019-05-29T10:59:46.561Z,6.62
2019-05-29T11:02:15.503Z,9.73
2019-05-29T11:04:48.902Z,7.37
2019-05-29T11:07:14.570Z,7.85
2019-05-29T11:09:44.828Z,7.35
2019-05-29T11:12:13.397Z,8.08
2019-05-29T11:14:41.843Z,7.67
2019-05-29T11:17:10.429Z,7.75
2019-05-29T11:19:38.968Z,8.60
2019-05-29T11:22:25.206Z,8.90
2019-05-29T11:24:37.826Z,7.47
2019-05-29T11:27:06.635Z,9.33
2019-05-29T11:29:35.235Z,8.35
2019-05-29T11:32:03.852Z,11.90
2019-05-29T11:34:33.187Z,9.10
2019-05-29T11:37:02.495Z,10.40
2019-05-29T11:39:31.235Z,8.85
2019-05-29T11:41:59.846Z,8.50
2019-05-29T11:44:28.445Z,10.82
2019-05-29T11:46:58.182Z,11.38
2019-05-29T11:49:26.955Z,11.15
2019-05-29T11:52:18.806Z,10.40
2019-05-29T11:54:25.775Z,8.85
2019-05-29T11:56:55.466Z,9.65
2019-05-29T11:59:24.343Z,10.10
2019-05-29T12:01:54.738Z,9.15
2019-05-29T12:04:26.600Z,10.08
2019-05-29T12:06:55.333Z,9.88
2019-05-29T12:09:32.956Z,9.48
2019-05-29T12:11:55.975Z,12.40
2019-05-29T12:14:24.830Z,10.65
2019-05-29T12:16:54.163Z,11.15
2019-05-29T12:19:23.483Z,10.88
2019-05-29T12:21:52.345Z,11.68
2019-05-29T12:24:21.120Z,12.03
2019-05-29T12:26:49.815Z,10.88
2019-05-29T12:29:18.398Z,11.95
2019-05-29T12:31:47.019Z,13.90
2019-05-29T12:34:19.126Z,10.75
2019-05-29T12:36:46.202Z,10.13
2019-05-29T12:39:14.727Z,10.58
2019-05-29T12:41:43.203Z,9.78
2019-05-29T12:44:11.743Z,10.88
2019-05-29T12:46:40.392Z,11.12
2019-05-29T12:49:08.968Z,10.18
2019-05-29T12:51:37.504Z,8.63
2019-05-29T12:54:06.183Z,9.05
2019-05-29T12:56:34.741Z,9.73
2019-05-29T12:59:04.632Z,8.60
2019-05-29T13:01:33.514Z,10.65
2019-05-29T13:04:02.446Z,9.03
2019-05-29T13:06:31.227Z,9.80
2019-05-29T13:09:00.507Z,9.65
2019-05-29T13:11:29.191Z,12.28
2019-05-29T13:13:58.435Z,11.15
2019-05-29T13:16:27.181Z,10.30
2019-05-29T13:18:56.985Z,9.15
2019-05-29T13:21:25.703Z,9.30
2019-05-29T13:23:54.312Z,9.55
2019-05-29T13:26:22.908Z,8.73
2019-05-29T13:28:51.468Z,9.98
2019-05-29T13:31:21.735Z,12.45
2019-05-29T13:33:50.297Z,9.18
2019-05-29T13:36:18.836Z,9.43
2019-05-29T13:38:47.475Z,10.10
2019-05-29T13:41:17.732Z,8.83
2019-05-29T13:43:46.321Z,8.53
2019-05-29T13:46:14.925Z,10.13
2019-05-29T13:48:43.440Z,8.93
2019-05-29T13:51:11.975Z,8.68
2019-05-29T13:53:40.600Z,9.23
2019-05-29T13:56:09.115Z,10.38
2019-05-29T13:58:37.577Z,10.82
2019-05-29T14:01:06.428Z,11.50
2019-05-29T14:03:35.108Z,9.25
2019-05-29T14:06:05.435Z,9.38
2019-05-29T14:08:34.134Z,10.40
2019-05-29T14:11:03.477Z,8.48
2019-05-29T14:13:32.338Z,10.30
2019-05-29T14:16:02.266Z,8.33
2019-05-29T14:18:31.379Z,7.87
2019-05-29T14:21:03.019Z,9.80
2019-05-29T14:23:31.699Z,12.18
2019-05-29T14:26:00.433Z,9.58
2019-05-29T14:28:29.217Z,8.83
2019-05-29T14:30:57.770Z,10.20
2019-05-29T14:33:26.401Z,8.63
2019-05-29T14:35:54.932Z,9.13
2019-05-29T14:38:23.576Z,9.08
2019-05-29T14:40:52.237Z,11.15
2019-05-29T14:43:20.734Z,10.40
2019-05-29T14:45:49.358Z,10.50
2019-05-29T14:48:17.905Z,8.78
2019-05-29T14:50:46.462Z,8.58
2019-05-29T14:53:15.047Z,8.18
2019-05-29T14:55:43.797Z,9.40
2019-05-29T14:58:12.267Z,9.83
2019-05-29T15:00:40.872Z,8.78
2019-05-29T15:03:09.557Z,9.20
2019-05-29T15:05:38.224Z,7.90
2019-05-29T15:08:07.993Z,7.30
2019-05-29T15:10:36.787Z,5.65
2019-05-29T15:13:06.518Z,7.12
2019-05-29T15:15:35.362Z,7.25
2019-05-29T15:18:04.884Z,5.65
2019-05-29T15:20:33.675Z,5.28
2019-05-29T15:23:02.295Z,4.62
2019-05-29T15:25:31.188Z,7.72
2019-05-29T15:27:59.800Z,5.10
2019-05-29T15:30:28.375Z,8.53
2019-05-29T15:32:57.023Z,5.08
2019-05-29T15:35:25.634Z,7.15
2019-05-29T15:37:54.248Z,4.47
2019-05-29T15:40:22.849Z,4.83
2019-05-29T15:42:51.396Z,4.05
2019-05-29T15:45:21.755Z,4.90
2019-05-29T15:47:50.366Z,5.12
2019-05-29T15:50:19.165Z,4.58
2019-05-29T15:52:47.761Z,5.80
2019-05-29T15:55:28.565Z,6.28
2019-05-29T15:57:47.076Z,5.45
2019-05-29T16:00:17.848Z,7.35
2019-05-29T16:02:49.061Z,9.43
2019-05-29T16:05:19.182Z,9.00
2019-05-29T16:07:47.879Z,6.75
2019-05-29T16:10:20.134Z,5.70
2019-05-29T16:12:47.616Z,6.17
2019-05-29T16:15:17.606Z,5.42
2019-05-29T16:17:46.253Z,6.72
2019-05-29T16:20:16.352Z,5.25
2019-05-29T16:22:45.150Z,6.17
2019-05-29T16:25:16.997Z,5.53
2019-05-29T16:27:45.766Z,4.75
2019-05-29T16:30:15.677Z,6.25
2019-05-29T16:32:44.316Z,9.43
2019-05-29T16:35:15.036Z,5.50
2019-05-29T16:37:43.746Z,5.35
2019-05-29T16:40:16.132Z,7.37
2019-05-29T16:42:44.993Z,7.03
2019-05-29T16:45:14.476Z,7.37
2019-05-29T16:47:43.174Z,6.87
2019-05-29T16:50:13.039Z,7.22
2019-05-29T16:52:41.586Z,6.30
2019-05-29T16:55:11.126Z,6.28
2019-05-29T16:57:39.584Z,5.83
2019-05-29T17:00:10.485Z,7.15
2019-05-29T17:02:39.900Z,7.10
2019-05-29T17:05:09.464Z,6.25
2019-05-29T17:07:38.080Z,7.08
2019-05-29T17:10:07.979Z,6.97
2019-05-29T17:12:36.442Z,7.17
2019-05-29T17:15:12.455Z,6.67
2019-05-29T17:17:41.057Z,7.25
2019-05-29T17:20:10.855Z,7.28
2019-05-29T17:22:39.423Z,7.58
2019-05-29T17:25:08.750Z,6.62
2019-05-29T17:27:37.326Z,6.60
2019-05-29T17:30:07.996Z,6.08
2019-05-29T17:32:36.855Z,6.55
2019-05-29T17:35:07.180Z,7.12
2019-05-29T17:37:35.852Z,7.10
2019-05-29T17:40:06.651Z,6.45
2019-05-29T17:42:35.214Z,7.40
2019-05-29T17:45:05.428Z,6.33
2019-05-29T17:47:34.082Z,5.75
2019-05-29T17:50:02.739Z,7.30
2019-05-29T17:52:31.487Z,7.58
2019-05-29T17:55:00.026Z,7.45
2019-05-29T17:57:28.657Z,7.75
2019-05-29T17:59:57.361Z,6.08
2019-05-29T18:02:26.346Z,6.08
2019-05-29T18:04:56.107Z,6.95
2019-05-29T18:07:24.816Z,6.92
2019-05-29T18:09:53.515Z,6.28
2019-05-29T18:12:22.967Z,7.03
2019-05-29T18:14:51.683Z,6.10
2019-05-29T18:17:21.314Z,5.42
2019-05-29T18:19:50.227Z,6.42
2019-05-29T18:22:19.543Z,6.70
2019-05-29T18:24:48.441Z,6.60
2019-05-29T18:27:17.925Z,7.12
2019-05-29T18:29:46.654Z,6.70
2019-05-29T18:32:15.197Z,6.00
2019-05-29T18:34:43.891Z,6.15
2019-05-29T18:37:12.483Z,5.85
2019-05-29T18:39:41.326Z,6.45
2019-05-29T18:42:09.795Z,5.87
2019-05-29T18:44:38.346Z,6.17
2019-05-29T18:47:06.924Z,6.00
2019-05-29T18:49:35.470Z,5.30
2019-05-29T18:52:04.072Z,6.28
2019-05-29T18:54:33.169Z,5.95
2019-05-29T18:57:14.381Z,6.28
2019-05-29T18:59:32.144Z,6.53
2019-05-29T19:02:00.826Z,6.75
2019-05-29T19:04:29.909Z,5.35
2019-05-29T19:06:58.607Z,5.10
2019-05-29T19:09:27.827Z,6.58
2019-05-29T19:11:56.644Z,6.53
2019-05-29T19:14:25.818Z,6.65
2019-05-29T19:16:54.637Z,6.40
2019-05-29T19:19:24.037Z,5.80
2019-05-29T19:21:52.832Z,7.50
2019-05-29T19:24:22.527Z,7.08
2019-05-29T19:26:51.399Z,6.78
2019-05-29T19:29:20.084Z,6.47
2019-05-29T19:31:48.548Z,6.15
2019-05-29T19:34:17.221Z,6.85
2019-05-29T19:36:45.763Z,5.42
2019-05-29T19:39:14.375Z,5.60
2019-05-29T19:41:43.294Z,5.83
2019-05-29T19:44:11.899Z,6.12
2019-05-29T19:46:53.101Z,6.33
2019-05-29T19:49:10.904Z,6.87
2019-05-29T19:51:39.556Z,7.65
2019-05-29T19:54:08.159Z,7.30
2019-05-29T19:56:36.770Z,6.53
2019-05-29T19:59:05.374Z,6.40
2019-05-29T20:01:37.488Z,5.67
2019-05-29T20:04:04.876Z,5.87
2019-05-29T20:06:35.266Z,5.72
2019-05-29T20:09:05.542Z,6.15
2019-05-29T20:11:34.009Z,6.28
2019-05-29T20:14:02.571Z,6.92
2019-05-29T20:16:34.170Z,7.00
2019-05-29T20:19:02.865Z,7.45
2019-05-29T20:21:32.733Z,6.95
2019-05-29T20:24:01.548Z,6.90
2019-05-29T20:26:30.899Z,9.43
2019-05-29T20:28:59.591Z,6.85
2019-05-29T20:31:28.391Z,5.62
2019-05-29T20:33:56.926Z,5.33
2019-05-29T20:36:25.456Z,5.78
2019-05-29T20:38:54.489Z,5.83
2019-05-29T20:41:23.206Z,6.28
2019-05-29T20:43:51.729Z,6.40
2019-05-29T20:46:20.301Z,6.42
2019-05-29T20:48:48.894Z,7.62
2019-05-29T20:51:17.425Z,6.58
2019-05-29T20:53:48.199Z,5.12
2019-05-29T20:56:16.465Z,5.30
2019-05-29T20:58:45.067Z,7.20
2019-05-29T21:01:13.788Z,6.20
2019-05-29T21:03:42.668Z,9.28
2019-05-29T21:06:11.666Z,7.67
2019-05-29T21:08:41.148Z,7.10
2019-05-29T21:11:10.072Z,7.55
2019-05-29T21:13:39.484Z,6.45
2019-05-29T21:16:08.408Z,6.50
2019-05-29T21:18:37.860Z,7.25
2019-05-29T21:21:06.690Z,7.17
2019-05-29T21:23:36.939Z,6.62
2019-05-29T21:26:06.168Z,7.25
2019-05-29T21:28:40.895Z,6.08
2019-05-29T21:31:05.115Z,5.67
2019-05-29T21:33:33.648Z,6.90
2019-05-29T21:36:02.270Z,7.17
2019-05-29T21:38:30.833Z,7.50
2019-05-29T21:40:59.360Z,7.33
2019-05-29T21:43:27.897Z,8.23
2019-05-29T21:45:56.461Z,7.55
2019-05-29T21:48:25.004Z,9.40
2019-05-29T21:50:53.611Z,7.12
2019-05-29T21:53:22.201Z,7.58
2019-05-29T21:55:50.848Z,7.25
2019-05-29T21:58:19.464Z,9.50
2019-05-29T22:00:50.896Z,7.67
2019-05-29T22:03:19.971Z,7.20
2019-05-29T22:05:48.947Z,7.70
2019-05-29T22:08:17.648Z,6.40
2019-05-29T22:10:46.247Z,7.78
2019-05-29T22:13:14.888Z,8.75
2019-05-29T22:15:43.471Z,8.08
2019-05-29T22:18:12.109Z,8.08
2019-05-29T22:20:40.733Z,9.33
2019-05-29T22:23:09.387Z,8.43
2019-05-29T22:25:37.835Z,7.78
2019-05-29T22:28:06.434Z,9.18
2019-05-29T22:30:35.318Z,8.28
2019-05-29T22:33:03.917Z,8.03
2019-05-29T22:35:32.518Z,9.78
2019-05-29T22:38:01.849Z,7.72
2019-05-29T22:40:30.990Z,7.87
2019-05-29T22:42:59.892Z,8.53
2019-05-29T22:45:28.625Z,7.50
2019-05-29T22:47:59.888Z,7.33
2019-05-29T22:50:28.730Z,6.90
2019-05-29T22:52:58.456Z,7.33
2019-05-29T22:55:27.099Z,7.58
2019-05-29T22:57:55.991Z,6.78
2019-05-29T23:00:24.974Z,8.43
2019-05-29T23:02:54.042Z,7.50
2019-05-29T23:05:22.742Z,7.42
2019-05-29T23:07:52.028Z,6.55
2019-05-29T23:10:21.090Z,7.83
2019-05-29T23:12:49.621Z,7.50
2019-05-29T23:15:18.245Z,9.90
2019-05-29T23:17:46.786Z,7.50
2019-05-29T23:20:15.686Z,8.63
2019-05-29T23:22:44.299Z,7.03
2019-05-29T23:25:12.929Z,9.33
2019-05-29T23:27:41.506Z,10.55
2019-05-29T23:30:10.805Z,11.75
2019-05-29T23:32:39.414Z,11.50
2019-05-29T23:35:08.815Z,10.13
2019-05-29T23:37:37.458Z,9.65
2019-05-29T23:40:08.790Z,12.70
2019-05-29T23:42:37.432Z,12.63
2019-05-29T23:45:09.470Z,12.10
2019-05-29T23:47:38.004Z,12.25
2019-05-29T23:50:09.844Z,14.70
2019-05-29T23:52:38.766Z,14.05
2019-05-29T23:55:09.308Z,14.60
2019-05-29T23:57:40.236Z,13.48
